Jijoca de Jericoacoara, Brazil
Current Conditions -  °F | °C
As of 12:00 AM on Sunday 21 Dec 2014 (Local Time) from SBPB Reporting Station
Clear Clear  
Wind Chill: 81°   Ceiling: Unl
Heat Index: 85°   Visibility: 6mi
Dew Point: 72°   Wind: 14mph
Humidity: 74%   Direction: 110°ESE
Pressure: 29.88"   Gusts: NA
Location:  2.9°S, 40.44°W
Report Text: SBPB 210300Z 11012KT CAVOK 27/22 Q1012
Loading
Personal Weather Stations






























Interactive Weather Map New forecast layout! Learn more

10-Day Weather Forecast

Advertisements
Track Severe Weather on mobile